Deadhorse Airport
PASC : now visible

Airfield :











YOU CAN JOIN US ON...

 
LOGIN :

Register | Disclaimer

   EN    FR    IT 

 









Legend :    VFR   Marginal VFR   IFR   Intensive IFR   Very Intensive IFR
Visi :
Ceiling :
>= 8 km
>= 3000ft
5 to 8 km
1000 to 3000 ft
1500m to 5 km
500 to 1000 ft
800 to 1500m
200 to 500 ft
< 800m
< 200 ft
Symbols :   Thunderstorms  Fog  Heavy snow  Heavy precipitations  Wind > 20 kt






- Airport Elevation : 65 ft
- IATA code : SCC


PASC - Deadhorse

CURRENT METAR :
  • 241653Z 23015KT 10SM SCT060 M28/M32 A3044 RMK AO2 SLP311 T12781317

EXPIRED METARs :
  • 241553Z 21009KT 10SM FEW048 BKN065 M28/M32 A3042 RMK AO2 SLP304 T12831322
  • 241453Z 22019KT 10SM CLR M28/M32 A3039 RMK AO2 SLP294 T12781317 53013

TAF PASC
Valid from the 24 at 15:00 until the 25 at 12:00 UTC


241456Z 2415/2512 23015KT P6SM SKC
FM242200 22010KT P6SM FEW050



MET'MAP, your aeronautical weather chart ! - Copyright ORBIFLY December 2007 - Disclaimer

ORBIFLY MET'MAP TEAM :

Programming & Development : Alexandra Zaïnal
Concept & original design : Baudouin d'Aumeries
Assistance for programming : Marc-Olivier Méhu
Technical & hardware support : Manuel Goepfert

Contact : metmap@orbifly.com




SOURCES & CREDITS :

   NOAA       Earth
Advisory